createdAt,value
2022-10-18T00:00:25.989Z,28.00
2022-10-18T00:01:25.964Z,29.10
2022-10-18T00:02:26.019Z,28.60
2022-10-18T00:03:25.936Z,26.40
2022-10-18T00:04:25.924Z,28.50
2022-10-18T00:05:25.945Z,27.10
2022-10-18T00:06:25.942Z,27.60
2022-10-18T00:07:25.918Z,25.90
2022-10-18T00:08:25.889Z,30.10
2022-10-18T00:09:25.883Z,29.30
2022-10-18T00:10:25.884Z,29.80
2022-10-18T00:11:25.854Z,29.00
2022-10-18T00:12:25.843Z,28.40
2022-10-18T00:13:25.817Z,27.70
2022-10-18T00:14:25.844Z,30.40
2022-10-18T00:15:25.810Z,31.30
2022-10-18T00:16:25.806Z,27.60
2022-10-18T00:17:25.799Z,29.80
2022-10-18T00:18:25.769Z,29.10
2022-10-18T00:19:28.531Z,28.60
2022-10-18T00:20:25.765Z,30.00
2022-10-18T00:21:25.751Z,27.20
2022-10-18T00:22:25.733Z,27.10
2022-10-18T00:23:25.720Z,28.80
2022-10-18T00:24:25.700Z,29.30
2022-10-18T00:25:25.693Z,31.20
2022-10-18T00:26:25.693Z,28.60
2022-10-18T00:27:25.663Z,28.80
2022-10-18T00:28:25.722Z,28.20
2022-10-18T00:29:25.651Z,26.50
2022-10-18T00:30:25.646Z,28.90
2022-10-18T00:31:25.646Z,29.30
2022-10-18T00:32:25.611Z,24.80
2022-10-18T00:33:25.606Z,27.20
2022-10-18T00:34:25.610Z,29.90
2022-10-18T00:35:25.572Z,28.40
2022-10-18T00:36:25.568Z,25.20
2022-10-18T00:37:25.574Z,29.00
2022-10-18T00:38:25.544Z,31.20
2022-10-18T00:39:25.541Z,26.60
2022-10-18T00:40:25.537Z,27.80
2022-10-18T00:41:25.506Z,30.00
2022-10-18T00:42:25.517Z,26.00
2022-10-18T00:43:25.495Z,25.30
2022-10-18T00:44:25.490Z,24.70
2022-10-18T00:45:32.513Z,26.80
2022-10-18T00:46:25.465Z,27.50
2022-10-18T00:47:25.437Z,25.10
2022-10-18T00:48:25.433Z,26.80
2022-10-18T00:49:25.424Z,27.00
2022-10-18T00:50:25.426Z,25.90
2022-10-18T00:51:25.524Z,23.20
2022-10-18T00:52:25.395Z,27.00
2022-10-18T00:53:25.402Z,27.70
2022-10-18T00:54:25.388Z,26.60
2022-10-18T00:55:25.349Z,27.50
2022-10-18T00:56:25.349Z,29.20
2022-10-18T00:57:25.326Z,26.20
2022-10-18T00:58:25.321Z,28.10
2022-10-18T00:59:25.316Z,28.00
2022-10-18T01:00:25.311Z,28.50
2022-10-18T01:01:28.280Z,24.40
2022-10-18T01:02:25.276Z,25.40
2022-10-18T01:03:25.269Z,27.70
2022-10-18T01:04:25.270Z,26.80
2022-10-18T01:05:25.261Z,24.40
2022-10-18T01:06:25.242Z,28.60
2022-10-18T01:07:25.268Z,26.30
2022-10-18T01:08:25.210Z,27.10
2022-10-18T01:09:25.223Z,28.70
2022-10-18T01:10:25.210Z,27.80
2022-10-18T01:11:25.170Z,26.10
2022-10-18T01:12:25.163Z,27.60
2022-10-18T01:13:25.982Z,28.80
2022-10-18T01:14:25.162Z,29.00
2022-10-18T01:15:25.159Z,26.60
2022-10-18T01:16:25.123Z,29.40
2022-10-18T01:17:25.116Z,28.30
2022-10-18T01:18:25.107Z,27.40
2022-10-18T01:19:25.092Z,24.00
2022-10-18T01:20:25.087Z,25.20
2022-10-18T01:21:25.058Z,25.90
2022-10-18T01:22:25.051Z,25.70
2022-10-18T01:23:25.035Z,27.30
2022-10-18T01:24:25.041Z,25.60
2022-10-18T01:25:25.038Z,26.10
2022-10-18T01:26:25.009Z,26.90
2022-10-18T01:27:24.998Z,26.90
2022-10-18T01:28:25.054Z,26.30
2022-10-18T01:29:24.997Z,23.50
2022-10-18T01:30:24.974Z,25.70
2022-10-18T01:31:24.957Z,24.10
2022-10-18T01:32:24.957Z,26.00
2022-10-18T01:33:24.945Z,29.80
2022-10-18T01:34:24.926Z,23.40
2022-10-18T01:35:24.923Z,25.10
2022-10-18T01:36:24.895Z,25.40
2022-10-18T01:37:24.888Z,25.30
2022-10-18T01:38:24.874Z,21.50
2022-10-18T01:39:24.888Z,26.60
2022-10-18T01:40:24.872Z,23.90
2022-10-18T01:41:24.863Z,27.40
2022-10-18T01:42:24.850Z,25.00
2022-10-18T01:43:24.812Z,25.60
2022-10-18T01:44:24.806Z,24.60
2022-10-18T01:45:24.812Z,23.50
2022-10-18T01:46:24.784Z,24.20
2022-10-18T01:47:24.768Z,23.90
2022-10-18T01:48:24.777Z,24.90
2022-10-18T01:49:24.745Z,23.60
2022-10-18T01:50:24.763Z,26.10
2022-10-18T01:51:24.731Z,25.90
2022-10-18T01:52:24.733Z,24.10
2022-10-18T01:53:24.726Z,27.10
2022-10-18T01:54:24.703Z,23.30
2022-10-18T01:55:24.690Z,26.00
2022-10-18T01:56:24.695Z,26.30
2022-10-18T01:57:24.678Z,25.30
2022-10-18T01:58:24.649Z,24.40
2022-10-18T01:59:24.641Z,28.40
2022-10-18T22:45:34.844Z,7.40
2022-10-18T22:46:34.799Z,7.30
2022-10-18T22:47:35.177Z,9.50
2022-10-18T22:48:34.779Z,8.10
2022-10-18T22:49:34.777Z,9.20
2022-10-18T22:50:34.758Z,7.50
2022-10-18T22:52:34.998Z,9.40
2022-10-18T22:53:34.744Z,8.00
2022-10-18T22:54:34.714Z,8.40
2022-10-18T22:55:34.706Z,8.10
2022-10-18T22:56:34.689Z,10.50
2022-10-18T22:57:34.683Z,9.60
2022-10-18T22:58:34.688Z,8.90
2022-10-18T22:59:34.660Z,9.10
2022-10-18T23:00:34.796Z,8.70
2022-10-18T23:01:34.660Z,11.30
2022-10-18T23:02:34.950Z,9.20
2022-10-18T23:03:34.635Z,9.70
2022-10-18T23:04:34.604Z,10.30
2022-10-18T23:05:34.601Z,8.90
2022-10-18T23:06:34.601Z,8.70
2022-10-18T23:07:34.600Z,10.20
2022-10-18T23:08:34.562Z,8.90
2022-10-18T23:09:34.593Z,8.10
2022-10-18T23:10:34.542Z,10.10
2022-10-18T23:11:34.546Z,10.80
2022-10-18T23:12:34.779Z,8.10
2022-10-18T23:13:37.399Z,8.10
2022-10-18T23:14:35.491Z,9.80
2022-10-18T23:15:34.486Z,8.60
2022-10-18T23:16:42.004Z,10.30
2022-10-18T23:17:34.785Z,8.90
2022-10-18T23:18:34.527Z,10.30
2022-10-18T23:19:34.450Z,7.60
2022-10-18T23:20:34.420Z,11.20
2022-10-18T23:21:34.415Z,8.40
2022-10-18T23:22:34.742Z,9.80
2022-10-18T23:23:34.394Z,8.50
2022-10-18T23:24:34.397Z,9.00
2022-10-18T23:25:34.374Z,9.60
2022-10-18T23:26:34.393Z,8.50
2022-10-18T23:27:34.413Z,7.80
2022-10-18T23:28:34.381Z,7.40
2022-10-18T23:29:34.346Z,7.60
2022-10-18T23:30:34.321Z,7.20
2022-10-18T23:31:34.335Z,8.30
2022-10-18T23:32:34.698Z,6.70
2022-10-18T23:33:34.291Z,8.00
2022-10-18T23:34:34.285Z,6.60
2022-10-18T23:35:34.263Z,6.90
2022-10-18T23:36:34.482Z,8.90
2022-10-18T23:37:34.628Z,7.40
2022-10-18T23:38:34.223Z,6.90
2022-10-18T23:39:34.220Z,6.00
2022-10-18T23:40:34.219Z,7.40
2022-10-18T23:41:34.206Z,8.40
2022-10-18T23:42:34.199Z,7.30
2022-10-18T23:43:34.174Z,8.10
2022-10-18T23:44:34.163Z,9.90
2022-10-18T23:45:34.231Z,8.70
2022-10-18T23:46:34.159Z,8.70
2022-10-18T23:47:34.487Z,7.50
2022-10-18T23:48:34.145Z,8.40
2022-10-18T23:49:34.107Z,8.70
2022-10-18T23:50:34.094Z,8.10
2022-10-18T23:51:34.092Z,7.50
2022-10-18T23:52:34.076Z,6.90
2022-10-18T23:53:34.080Z,6.90
2022-10-18T23:54:34.091Z,7.30
2022-10-18T23:55:34.048Z,8.80
2022-10-18T23:56:34.024Z,9.50
2022-10-18T23:57:34.403Z,9.10
2022-10-18T23:58:34.023Z,9.20
2022-10-18T23:59:34.000Z,8.60
